createdAt,value
2023-02-27T00:03:58.728Z,1.70
2023-02-27T00:09:01.732Z,2.07
2023-02-27T00:14:04.658Z,3.77
2023-02-27T00:19:08.972Z,2.97
2023-02-27T00:24:12.154Z,2.23
2023-02-27T00:29:15.058Z,3.00
2023-02-27T00:34:19.319Z,2.90
2023-02-27T00:39:22.291Z,3.00
2023-02-27T00:44:25.206Z,2.80
2023-02-27T00:49:29.426Z,3.50
2023-02-27T00:54:32.377Z,1.90
2023-02-27T00:59:35.322Z,2.40
2023-02-27T01:04:39.632Z,2.43
2023-02-27T01:09:43.348Z,2.60
2023-02-27T01:14:46.320Z,2.00
2023-02-27T01:19:50.604Z,2.00
2023-02-27T01:24:53.588Z,2.67
2023-02-27T01:29:56.540Z,2.60
2023-02-27T01:35:00.806Z,3.17
2023-02-27T01:40:05.040Z,2.40
2023-02-27T01:45:28.519Z,3.13
2023-02-27T01:50:34.706Z,2.30
2023-02-27T01:55:40.225Z,2.77
2023-02-27T02:00:43.473Z,2.20
2023-02-27T02:05:48.670Z,2.80
2023-02-27T02:10:53.046Z,2.20
2023-02-27T02:16:20.154Z,2.77
2023-02-27T02:21:54.462Z,2.27
2023-02-27T02:27:10.774Z,1.73
2023-02-27T02:32:43.656Z,2.00
2023-02-27T02:38:30.230Z,2.13
2023-02-27T02:43:42.391Z,1.77
2023-02-27T02:48:50.358Z,1.63
2023-02-27T02:54:01.041Z,1.90
2023-02-27T02:59:10.899Z,1.93
2023-02-27T03:04:19.700Z,2.30
2023-02-27T03:09:30.156Z,2.50
2023-02-27T03:14:40.447Z,5.40
2023-02-27T03:19:51.405Z,4.30
2023-02-27T03:24:58.342Z,3.43
2023-02-27T03:30:08.933Z,4.37
2023-02-27T03:35:12.833Z,3.10
2023-02-27T03:40:26.672Z,4.03
2023-02-27T03:45:37.529Z,3.90
2023-02-27T03:50:40.547Z,4.07
2023-02-27T03:55:46.974Z,4.40
2023-02-27T04:00:51.361Z,5.27
2023-02-27T04:05:54.616Z,4.47
2023-02-27T04:11:16.749Z,4.00
2023-02-27T04:16:47.076Z,4.67
2023-02-27T04:22:04.249Z,4.80
2023-02-27T04:27:16.099Z,4.73
2023-02-27T04:32:27.224Z,4.07
2023-02-27T04:37:36.772Z,4.00
2023-02-27T04:42:43.108Z,3.90
2023-02-27T04:47:50.723Z,3.90
2023-02-27T04:52:58.461Z,7.87
2023-02-27T04:58:05.685Z,8.50
2023-02-27T05:03:14.547Z,8.17
2023-02-27T05:08:25.091Z,9.27
2023-02-27T05:13:33.224Z,12.93
2023-02-27T05:18:37.990Z,6.57
2023-02-27T05:23:45.996Z,7.83
2023-02-27T05:28:55.186Z,7.73
2023-02-27T05:34:07.538Z,5.17
2023-02-27T05:39:12.386Z,6.10
2023-02-27T05:44:18.390Z,4.07
2023-02-27T05:49:27.195Z,4.20
2023-02-27T05:54:37.258Z,3.97
2023-02-27T05:59:45.190Z,4.37
2023-02-27T06:04:49.464Z,3.67
2023-02-27T06:09:52.880Z,3.43
2023-02-27T06:14:55.719Z,6.80
2023-02-27T06:19:59.925Z,5.20
2023-02-27T06:25:03.048Z,4.27
2023-02-27T06:30:07.856Z,5.33
2023-02-27T06:35:12.746Z,8.30
2023-02-27T06:40:16.054Z,7.47
2023-02-27T06:45:19.073Z,6.60
2023-02-27T06:50:23.368Z,5.33
2023-02-27T06:55:26.694Z,4.30
2023-02-27T07:00:30.516Z,3.90
2023-02-27T07:05:34.951Z,3.97
2023-02-27T07:10:38.948Z,3.60
2023-02-27T07:15:42.007Z,3.87
2023-02-27T07:20:46.260Z,4.10
2023-02-27T07:25:49.200Z,4.70
2023-02-27T07:30:54.856Z,3.97
2023-02-27T07:35:59.128Z,4.30
2023-02-27T07:41:02.082Z,4.23
2023-02-27T07:46:05.306Z,3.50
2023-02-27T07:51:09.569Z,3.60
2023-02-27T07:56:12.504Z,3.63
2023-02-27T08:01:15.378Z,4.17
2023-02-27T08:06:19.650Z,3.80
2023-02-27T08:11:22.686Z,4.10
2023-02-27T08:16:26.162Z,3.73
2023-02-27T08:21:31.153Z,4.33
2023-02-27T08:26:34.357Z,4.40
2023-02-27T08:31:37.271Z,4.20
2023-02-27T08:36:41.848Z,4.40
2023-02-27T08:41:44.792Z,3.70
2023-02-27T08:46:47.901Z,3.33
2023-02-27T08:51:52.230Z,3.73
2023-02-27T08:56:55.132Z,3.80
2023-02-27T09:01:59.076Z,3.63
2023-02-27T09:07:03.563Z,4.80
2023-02-27T09:12:07.024Z,3.87
2023-02-27T09:17:09.931Z,4.43
2023-02-27T09:22:14.234Z,3.80
2023-02-27T09:27:17.303Z,4.73
2023-02-27T09:32:20.313Z,4.20
2023-02-27T09:37:25.289Z,4.43
2023-02-27T09:42:34.926Z,3.67
2023-02-27T09:47:41.756Z,3.70
2023-02-27T09:52:46.267Z,3.40
2023-02-27T09:57:56.301Z,3.43
2023-02-27T10:03:08.616Z,3.37
2023-02-27T10:08:22.530Z,4.50
2023-02-27T10:13:52.366Z,4.40
2023-02-27T10:18:59.410Z,4.20
2023-02-27T10:24:13.027Z,5.20
2023-02-27T10:29:20.364Z,4.40
2023-02-27T10:34:25.557Z,3.67
2023-02-27T10:39:31.747Z,4.73
2023-02-27T10:44:34.750Z,4.07
2023-02-27T10:49:39.574Z,4.20
2023-02-27T10:54:44.134Z,3.93
2023-02-27T10:59:53.906Z,5.00
2023-02-27T11:04:59.849Z,4.97
2023-02-27T11:10:17.286Z,4.57
2023-02-27T11:15:25.688Z,4.83
2023-02-27T11:20:36.902Z,4.10
2023-02-27T11:25:41.609Z,4.23
2023-02-27T11:30:44.742Z,4.20
2023-02-27T11:35:57.218Z,4.00
2023-02-27T11:41:04.290Z,3.50
2023-02-27T11:46:31.524Z,3.87
2023-02-27T11:51:47.026Z,3.37
2023-02-27T11:56:54.928Z,3.73
2023-02-27T12:02:04.858Z,3.77
2023-02-27T12:07:16.593Z,4.07
2023-02-27T12:12:24.987Z,4.33
2023-02-27T12:17:33.131Z,3.40
2023-02-27T12:22:38.970Z,3.60
2023-02-27T12:27:48.108Z,3.87
2023-02-27T12:32:55.749Z,2.90
2023-02-27T12:37:59.032Z,3.90
2023-02-27T12:43:26.823Z,3.37
2023-02-27T12:48:46.442Z,2.50
2023-02-27T12:54:06.666Z,2.70
2023-02-27T12:59:24.898Z,2.87
2023-02-27T13:04:37.561Z,2.90
2023-02-27T13:09:46.505Z,2.87
2023-02-27T13:14:58.785Z,3.70
2023-02-27T13:20:06.210Z,2.70
2023-02-27T13:25:14.317Z,4.00
2023-02-27T13:30:25.029Z,4.17
2023-02-27T13:35:36.307Z,3.23
2023-02-27T13:40:41.474Z,3.20
2023-02-27T13:45:57.913Z,3.33
2023-02-27T13:51:02.187Z,3.37
2023-02-27T13:56:23.222Z,3.13
2023-02-27T14:01:29.676Z,2.87
2023-02-27T14:06:33.046Z,3.10
2023-02-27T14:11:39.842Z,2.30
2023-02-27T14:17:03.523Z,1.50
2023-02-27T14:22:40.189Z,1.23
2023-02-27T14:27:50.456Z,2.60
2023-02-27T14:32:59.019Z,1.70
2023-02-27T14:38:09.314Z,1.57
2023-02-27T14:43:22.972Z,1.40
2023-02-27T14:48:29.785Z,1.43
2023-02-27T14:53:33.038Z,1.30
2023-02-27T14:58:36.056Z,1.50
2023-02-27T15:03:46.097Z,2.10
2023-02-27T15:08:52.214Z,1.97
2023-02-27T15:13:59.331Z,2.20
2023-02-27T15:19:14.220Z,2.30
2023-02-27T15:24:26.918Z,1.50
2023-02-27T15:29:35.850Z,1.33
2023-02-27T15:34:45.009Z,3.23
2023-02-27T15:39:48.205Z,1.17
2023-02-27T15:44:52.988Z,1.67
2023-02-27T15:50:01.174Z,1.80
2023-02-27T15:55:07.634Z,1.50
2023-02-27T16:00:12.254Z,2.50
2023-02-27T16:05:22.620Z,2.00
2023-02-27T16:10:29.113Z,1.53
2023-02-27T16:15:34.664Z,2.10
2023-02-27T16:20:42.193Z,1.77
2023-02-27T16:26:03.181Z,1.80
2023-02-27T16:31:08.006Z,2.33
2023-02-27T16:36:23.248Z,2.60
2023-02-27T16:41:26.543Z,4.67
2023-02-27T16:46:31.137Z,2.00
2023-02-27T16:51:36.149Z,2.50
2023-02-27T16:56:39.437Z,5.47
2023-02-27T17:01:42.840Z,3.60
2023-02-27T17:06:47.177Z,6.70
2023-02-27T17:11:51.246Z,6.00
2023-02-27T17:16:54.248Z,14.23
2023-02-27T17:21:58.643Z,10.73
2023-02-27T17:27:01.729Z,8.07
2023-02-27T17:32:05.118Z,6.00
2023-02-27T17:37:09.614Z,7.83
2023-02-27T17:42:16.548Z,5.40
2023-02-27T17:47:19.648Z,4.30
2023-02-27T17:52:24.084Z,4.07
2023-02-27T17:57:27.118Z,4.83
2023-02-27T18:02:30.159Z,5.00
2023-02-27T18:07:34.661Z,5.20
2023-02-27T18:12:38.358Z,5.40
2023-02-27T18:17:41.677Z,4.93
2023-02-27T18:22:45.950Z,5.80
2023-02-27T18:27:49.023Z,5.87
2023-02-27T18:32:51.956Z,6.57
2023-02-27T18:37:56.261Z,6.40
2023-02-27T18:42:59.210Z,6.60
2023-02-27T18:48:02.231Z,7.10
2023-02-27T18:53:06.548Z,6.17
2023-02-27T18:58:09.481Z,5.73
2023-02-27T19:03:12.502Z,5.93
2023-02-27T19:08:17.507Z,5.90
2023-02-27T19:13:20.416Z,5.93
2023-02-27T19:18:23.310Z,5.33
2023-02-27T19:23:27.595Z,8.40
2023-02-27T19:28:30.675Z,8.63
2023-02-27T19:33:33.555Z,7.70
2023-02-27T19:38:38.083Z,7.67
2023-02-27T19:43:42.279Z,6.70
2023-02-27T19:48:45.291Z,18.60
2023-02-27T19:53:49.825Z,8.90
2023-02-27T19:58:54.107Z,7.07
2023-02-27T20:03:57.640Z,6.60
2023-02-27T20:09:02.136Z,6.63
2023-02-27T20:14:05.545Z,6.57
2023-02-27T20:19:10.784Z,6.30
2023-02-27T20:24:16.447Z,5.00
2023-02-27T20:29:23.109Z,4.90
2023-02-27T20:34:27.177Z,6.50
2023-02-27T20:39:31.619Z,5.80
2023-02-27T20:44:34.584Z,5.60
2023-02-27T20:49:37.652Z,4.70
2023-02-27T20:54:41.975Z,11.33
2023-02-27T20:59:44.889Z,8.63
2023-02-27T21:04:49.417Z,5.90
2023-02-27T21:09:53.817Z,5.50
2023-02-27T21:14:57.257Z,5.03
2023-02-27T21:20:00.160Z,5.53
2023-02-27T21:25:04.845Z,5.10
2023-02-27T21:30:11.097Z,5.67
2023-02-27T21:35:14.821Z,5.20
2023-02-27T21:40:19.358Z,5.97
2023-02-27T21:45:22.259Z,5.00
2023-02-27T21:50:25.167Z,6.50
2023-02-27T21:55:29.605Z,6.90
2023-02-27T22:00:33.563Z,5.90
2023-02-27T22:05:36.761Z,6.03
2023-02-27T22:10:42.888Z,5.60
2023-02-27T22:15:45.841Z,5.90
2023-02-27T22:20:49.093Z,5.50
2023-02-27T22:26:01.566Z,5.13
2023-02-27T22:31:09.498Z,5.33
2023-02-27T22:36:15.115Z,4.10
2023-02-27T22:41:21.229Z,4.27
2023-02-27T22:46:26.777Z,3.87
2023-02-27T22:51:30.585Z,4.13
2023-02-27T22:56:36.483Z,4.10
2023-02-27T23:01:39.538Z,5.00
2023-02-27T23:06:42.969Z,5.37
2023-02-27T23:11:47.734Z,5.80
2023-02-27T23:16:51.446Z,5.77
2023-02-27T23:21:54.359Z,6.47
2023-02-27T23:27:00.227Z,7.07
2023-02-27T23:32:03.191Z,6.20
2023-02-27T23:37:06.509Z,5.50
2023-02-27T23:42:10.918Z,5.93
2023-02-27T23:47:31.280Z,5.53
2023-02-27T23:52:34.164Z,5.40
2023-02-27T23:57:38.410Z,5.00
